Time;durP1;ratioP1;P1;durP2;ratioP2;P2;SDS_P1;SDS_P2;PMS_P1;PMS_P2;Temp;Humidity;BMP_temperature;BMP_pressure;BME280_temperature;BME280_humidity;BME280_pressure;Samples;Min_cycle;Max_cycle;Signal;HPM_P1;HPM_P2
2021/04/28 00:02:07;;;;;;;10.88;4.63;;;11.50;90.50;;;;;;5098860;28;20190;-73
2021/04/28 00:04:33;;;;;;;7.78;4.30;;;11.50;90.90;;;;;;5102987;28;20936;-73
2021/04/28 00:07:02;;;;;;;9.40;4.72;;;11.40;90.70;;;;;;5096589;28;20178;-73
2021/04/28 00:09:29;;;;;;;6.47;3.58;;;11.40;90.30;;;;;;5095766;28;20169;-73
2021/04/28 00:11:55;;;;;;;8.13;4.10;;;11.40;89.90;;;;;;5101940;28;20260;-71
2021/04/28 00:14:21;;;;;;;6.95;4.43;;;11.40;89.80;;;;;;5104596;28;21478;-73
2021/04/28 00:16:47;;;;;;;5.72;4.13;;;11.40;89.90;;;;;;5081201;28;20182;-73
2021/04/28 00:19:12;;;;;;;4.57;4.18;;;11.30;89.90;;;;;;5102506;28;20193;-73
2021/04/28 00:21:38;;;;;;;4.85;4.00;;;11.30;90.10;;;;;;5102104;28;20185;-73
2021/04/28 00:24:04;;;;;;;9.73;4.90;;;11.30;90.50;;;;;;5102083;28;20581;-73
2021/04/28 00:26:30;;;;;;;9.85;4.75;;;11.30;90.70;;;;;;5082128;28;20213;-73
2021/04/28 00:28:55;;;;;;;5.68;4.30;;;11.20;91.00;;;;;;5103030;28;20237;-74
2021/04/28 00:31:21;;;;;;;5.43;4.85;;;11.20;90.90;;;;;;5101845;28;20193;-73
2021/04/28 00:33:47;;;;;;;5.80;5.07;;;11.20;90.80;;;;;;5105062;28;20206;-73
2021/04/28 00:36:13;;;;;;;5.43;3.72;;;11.10;90.80;;;;;;5096894;28;20216;-73
2021/04/28 00:38:38;;;;;;;4.68;3.90;;;11.10;91.10;;;;;;5102522;28;20264;-73
2021/04/28 00:41:08;;;;;;;6.23;3.53;;;11.10;91.00;;;;;;5100157;28;20235;-73
2021/04/28 00:43:35;;;;;;;8.30;3.40;;;11.00;90.70;;;;;;5101218;28;20188;-73
2021/04/28 00:46:02;;;;;;;4.30;3.40;;;11.00;90.50;;;;;;5098899;28;20685;-72
2021/04/28 00:48:28;;;;;;;4.82;3.58;;;10.90;90.40;;;;;;5100721;28;20929;-72
2021/04/28 00:50:54;;;;;;;6.53;3.20;;;10.90;90.70;;;;;;5098127;28;20801;-73
2021/04/28 00:53:22;;;;;;;3.95;3.55;;;10.80;90.50;;;;;;5099970;28;20178;-73
2021/04/28 00:55:48;;;;;;;4.97;4.10;;;10.90;90.50;;;;;;5094298;28;20200;-73
2021/04/28 00:58:14;;;;;;;5.38;3.75;;;10.90;90.50;;;;;;5105254;28;20193;-73
2021/04/28 01:00:42;;;;;;;8.38;3.33;;;10.90;90.50;;;;;;5102635;28;20205;-73
2021/04/28 01:03:27;;;;;;;6.78;3.90;;;10.90;90.40;;;;;;5101429;28;20192;-73
2021/04/28 01:06:02;;;;;;;3.03;2.83;;;11.00;90.10;;;;;;5096086;28;20187;-72
2021/04/28 01:08:28;;;;;;;5.33;4.00;;;11.00;90.50;;;;;;5096977;28;20268;-72
2021/04/28 01:10:55;;;;;;;5.67;3.60;;;11.00;90.30;;;;;;5100780;28;20261;-73
2021/04/28 01:13:22;;;;;;;4.60;3.97;;;11.00;90.20;;;;;;5102799;28;20194;-73
2021/04/28 01:15:49;;;;;;;5.50;4.38;;;11.00;90.20;;;;;;5094382;28;20711;-70
2021/04/28 01:18:17;;;;;;;6.05;3.55;;;11.00;90.10;;;;;;5096423;28;20182;-72
2021/04/28 01:20:44;;;;;;;3.70;3.40;;;11.00;90.10;;;;;;5099164;28;20173;-71
2021/04/28 01:23:11;;;;;;;5.70;4.13;;;11.00;89.90;;;;;;5101747;28;20189;-71
2021/04/28 01:25:38;;;;;;;3.77;3.43;;;11.00;89.80;;;;;;5100991;28;20251;-71
2021/04/28 01:28:15;;;;;;;6.40;4.23;;;11.10;89.80;;;;;;5079946;28;20268;-72
2021/04/28 01:30:48;;;;;;;2.83;2.63;;;11.00;89.70;;;;;;5104319;28;20541;-73
2021/04/28 01:33:28;;;;;;;8.50;2.90;;;11.00;90.30;;;;;;5099502;28;20186;-73
2021/04/28 01:35:57;;;;;;;7.23;3.50;;;10.90;90.80;;;;;;5095986;28;20264;-73
2021/04/28 01:38:25;;;;;;;3.30;3.10;;;10.90;90.60;;;;;;5090591;28;20555;-73
2021/04/28 01:40:52;;;;;;;4.13;3.70;;;10.90;90.40;;;;;;5098920;28;20890;-73
2021/04/28 01:43:19;;;;;;;6.37;3.37;;;10.90;90.40;;;;;;5102417;28;20182;-73
2021/04/28 01:45:55;;;;;;;5.63;4.27;;;10.90;90.40;;;;;;5098646;28;20176;-73
2021/04/28 01:48:22;;;;;;;7.95;3.75;;;10.90;89.80;;;;;;5100192;28;20177;-73
2021/04/28 01:50:50;;;;;;;5.70;3.25;;;10.90;90.20;;;;;;5099937;28;20188;-73
2021/04/28 01:53:18;;;;;;;6.27;3.83;;;10.90;90.00;;;;;;5100330;28;20174;-73
2021/04/28 01:55:49;;;;;;;3.75;3.45;;;10.90;90.20;;;;;;5095600;28;20297;-73
2021/04/28 01:58:15;;;;;;;3.13;2.90;;;10.90;89.90;;;;;;5101227;28;20314;-73
2021/04/28 02:00:41;;;;;;;3.40;3.20;;;10.90;90.20;;;;;;5097731;28;20189;-73
2021/04/28 02:03:07;;;;;;;4.57;2.90;;;10.90;90.40;;;;;;5080228;28;20186;-73
2021/04/28 02:05:33;;;;;;;2.83;2.63;;;10.80;90.40;;;;;;5093850;28;20354;-72
2021/04/28 02:07:59;;;;;;;6.13;3.47;;;10.80;90.40;;;;;;5101142;28;20188;-73
2021/04/28 02:10:26;;;;;;;3.23;2.93;;;10.80;90.40;;;;;;5099850;28;20572;-73
2021/04/28 02:12:52;;;;;;;4.60;2.83;;;10.80;90.50;;;;;;5103120;28;20767;-73
2021/04/28 02:15:20;;;;;;;2.53;1.83;;;10.70;90.80;;;;;;5095825;28;20206;-73
2021/04/28 02:17:52;;;;;;;2.30;2.10;;;10.80;90.50;;;;;;5098515;28;20332;-73
2021/04/28 02:20:19;;;;;;;4.82;2.40;;;10.80;90.40;;;;;;5099627;28;20178;-73
2021/04/28 02:22:45;;;;;;;2.35;2.28;;;10.80;90.60;;;;;;5100055;28;20857;-73
2021/04/28 02:25:11;;;;;;;11.80;4.00;;;10.90;90.70;;;;;;5096000;28;20690;-73
2021/04/28 02:27:39;;;;;;;6.70;4.25;;;10.90;90.80;;;;;;5103602;28;20184;-73
2021/04/28 02:30:07;;;;;;;7.40;4.40;;;10.90;90.70;;;;;;5109123;28;20178;-73
2021/04/28 02:32:33;;;;;;;7.03;4.70;;;10.80;90.60;;;;;;5109923;28;20177;-73
2021/04/28 02:34:58;;;;;;;9.60;4.47;;;10.80;90.60;;;;;;5104496;28;20262;-73
2021/04/28 02:37:27;;;;;;;6.00;5.40;;;10.80;90.50;;;;;;5101478;28;20181;-73
2021/04/28 02:42:45;;;;;;;7.77;5.60;;;10.60;91.10;;;;;;5104371;28;20183;-73
2021/04/28 02:45:18;;;;;;;5.63;4.97;;;10.60;91.50;;;;;;5089501;28;20189;-73
2021/04/28 02:47:46;;;;;;;5.17;4.60;;;10.60;91.60;;;;;;5105894;28;20567;-73
2021/04/28 02:50:15;;;;;;;14.57;4.90;;;10.50;92.10;;;;;;5110294;28;20189;-73
2021/04/28 02:52:44;;;;;;;9.93;5.18;;;10.40;92.00;;;;;;5103685;28;20196;-73
2021/04/28 02:55:11;;;;;;;7.70;4.70;;;10.40;92.10;;;;;;5101291;28;20581;-73
2021/04/28 02:57:37;;;;;;;5.97;4.63;;;10.40;92.30;;;;;;5107904;28;20226;-72
2021/04/28 03:00:10;;;;;;;5.83;4.87;;;10.30;92.10;;;;;;5106187;28;20182;-71
2021/04/28 03:02:40;;;;;;;8.83;4.63;;;10.30;92.10;;;;;;5106616;28;20255;-73
2021/04/28 03:05:12;;;;;;;12.27;6.23;;;10.30;92.30;;;;;;5105178;28;20179;-73
2021/04/28 03:07:37;;;;;;;11.33;5.67;;;10.20;92.20;;;;;;5104844;28;20242;-74
2021/04/28 03:10:04;;;;;;;6.17;4.93;;;10.20;92.60;;;;;;5104548;28;20646;-73
2021/04/28 03:12:31;;;;;;;8.43;5.17;;;10.20;92.80;;;;;;5108551;28;20196;-72
2021/04/28 03:14:57;;;;;;;9.57;5.03;;;10.20;92.90;;;;;;5100008;28;20210;-72
2021/04/28 03:17:24;;;;;;;11.90;6.30;;;10.20;93.10;;;;;;5106239;28;20178;-73
2021/04/28 03:19:56;;;;;;;12.43;6.77;;;10.20;92.80;;;;;;5105359;28;20201;-73
2021/04/28 03:22:22;;;;;;;10.33;6.03;;;10.20;92.60;;;;;;5105136;28;20748;-74
2021/04/28 03:24:48;;;;;;;8.67;6.10;;;10.20;92.70;;;;;;5100727;28;20272;-73
2021/04/28 03:27:16;;;;;;;17.47;6.03;;;10.20;92.60;;;;;;5106620;28;20217;-73
2021/04/28 03:29:42;;;;;;;10.70;6.37;;;10.20;92.70;;;;;;5105017;28;20247;-73
2021/04/28 03:32:09;;;;;;;6.17;5.57;;;10.20;92.90;;;;;;5107590;28;20185;-73
2021/04/28 03:34:35;;;;;;;6.80;5.03;;;10.20;92.70;;;;;;5105941;28;20214;-74
2021/04/28 03:37:02;;;;;;;10.57;5.50;;;10.20;93.00;;;;;;5105130;28;20616;-73
2021/04/28 03:39:28;;;;;;;7.13;4.37;;;10.20;93.10;;;;;;5099096;28;20216;-74
2021/04/28 03:41:54;;;;;;;7.50;5.37;;;10.20;93.30;;;;;;5102113;28;20257;-73
2021/04/28 03:44:20;;;;;;;8.35;5.43;;;10.20;93.10;;;;;;5098425;28;20261;-74
2021/04/28 03:46:46;;;;;;;6.23;4.87;;;10.20;92.80;;;;;;5103949;28;20189;-74
2021/04/28 03:49:11;;;;;;;6.20;4.10;;;10.20;93.00;;;;;;5100756;28;20189;-73
2021/04/28 03:51:37;;;;;;;9.60;4.43;;;10.20;91.80;;;;;;5104408;28;20954;-73
2021/04/28 03:54:03;;;;;;;4.73;4.30;;;10.30;91.80;;;;;;5098346;28;20604;-73
2021/04/28 03:56:29;;;;;;;5.43;4.93;;;10.30;91.80;;;;;;5101290;28;20654;-73
2021/04/28 03:58:55;;;;;;;4.05;3.72;;;10.30;91.70;;;;;;5101034;28;20249;-73
2021/04/28 04:01:20;;;;;;;5.90;3.60;;;10.40;91.50;;;;;;5098669;28;20198;-73
2021/04/28 04:03:46;;;;;;;6.25;3.83;;;10.40;90.70;;;;;;5103870;28;20192;-73
2021/04/28 04:06:12;;;;;;;4.07;3.77;;;10.50;90.70;;;;;;5101302;28;20213;-73
2021/04/28 04:08:38;;;;;;;5.17;4.20;;;10.50;90.20;;;;;;5103102;28;20229;-73
2021/04/28 04:11:03;;;;;;;5.70;4.17;;;10.50;90.30;;;;;;5097612;28;20186;-73
2021/04/28 04:13:30;;;;;;;3.80;3.50;;;10.60;90.00;;;;;;5104846;28;20189;-73
2021/04/28 04:15:55;;;;;;;5.67;3.40;;;10.60;89.80;;;;;;5098871;28;20201;-73
2021/04/28 04:18:21;;;;;;;4.85;3.45;;;10.70;89.70;;;;;;5097473;28;20190;-73
2021/04/28 04:20:47;;;;;;;6.53;4.17;;;10.70;89.60;;;;;;5099880;28;20197;-72
2021/04/28 04:23:12;;;;;;;4.50;3.90;;;10.80;89.70;;;;;;5093936;28;20195;-73
2021/04/28 04:25:38;;;;;;;4.20;3.80;;;10.80;89.80;;;;;;5100884;28;20189;-72
2021/04/28 04:28:04;;;;;;;4.53;3.63;;;10.90;89.90;;;;;;5103449;28;20239;-72
2021/04/28 04:30:30;;;;;;;3.90;3.13;;;11.00;89.90;;;;;;5099225;28;20181;-72
2021/04/28 04:32:56;;;;;;;5.53;4.00;;;11.00;89.90;;;;;;5098804;28;20190;-73
2021/04/28 04:35:23;;;;;;;9.38;4.53;;;11.10;89.90;;;;;;5099743;28;20225;-72
2021/04/28 04:37:48;;;;;;;4.93;4.35;;;11.20;89.90;;;;;;5101328;28;20178;-72
2021/04/28 04:40:15;;;;;;;9.23;4.80;;;11.30;89.80;;;;;;5102273;28;20184;-73
2021/04/28 04:42:41;;;;;;;8.00;4.82;;;11.40;89.60;;;;;;5080639;28;20190;-72
2021/04/28 04:45:07;;;;;;;8.32;4.68;;;11.50;89.50;;;;;;5098933;28;20181;-73
2021/04/28 04:47:33;;;;;;;7.55;4.65;;;11.50;89.50;;;;;;5093740;28;20208;-72
2021/04/28 04:49:58;;;;;;;5.93;4.47;;;11.60;89.30;;;;;;5094577;28;20662;-72
2021/04/28 04:52:24;;;;;;;5.10;4.45;;;11.70;89.10;;;;;;5096269;28;20315;-71
2021/04/28 04:54:50;;;;;;;5.07;3.73;;;11.70;88.80;;;;;;5092285;28;20270;-72
2021/04/28 04:57:16;;;;;;;8.23;4.35;;;11.80;88.50;;;;;;5095291;28;20186;-72
2021/04/28 04:59:42;;;;;;;5.60;4.50;;;11.80;88.10;;;;;;5093947;28;20230;-71
2021/04/28 05:02:08;;;;;;;4.37;4.07;;;11.80;87.80;;;;;;5092056;28;20186;-73
2021/04/28 05:04:34;;;;;;;4.95;4.50;;;11.90;87.60;;;;;;5093828;28;20201;-72
2021/04/28 05:07:00;;;;;;;11.05;4.70;;;11.90;87.40;;;;;;5093932;28;20847;-71
2021/04/28 05:09:26;;;;;;;5.60;4.50;;;11.90;86.80;;;;;;5097974;28;20178;-71
2021/04/28 05:11:52;;;;;;;6.95;5.38;;;12.00;86.70;;;;;;5087203;28;20589;-72
2021/04/28 05:14:17;;;;;;;6.68;4.50;;;12.00;86.40;;;;;;5094277;28;20737;-70
2021/04/28 05:16:43;;;;;;;5.30;4.40;;;12.00;86.20;;;;;;5092296;28;20265;-72
2021/04/28 05:19:09;;;;;;;6.22;4.97;;;12.00;86.10;;;;;;5097358;28;20582;-70
2021/04/28 05:21:35;;;;;;;5.90;4.30;;;12.00;85.80;;;;;;5097183;28;20209;-70
2021/04/28 05:24:01;;;;;;;7.28;4.45;;;12.00;85.80;;;;;;5093299;28;20250;-73
2021/04/28 05:26:27;;;;;;;7.90;4.63;;;12.00;85.40;;;;;;5091523;28;20789;-72
2021/04/28 05:28:53;;;;;;;4.93;4.53;;;12.10;85.00;;;;;;5095677;28;20187;-72
2021/04/28 05:31:19;;;;;;;6.22;5.00;;;12.10;85.10;;;;;;5096639;28;20182;-72
2021/04/28 05:33:44;;;;;;;6.68;4.57;;;12.10;85.00;;;;;;5098973;28;20231;-72
2021/04/28 05:36:10;;;;;;;8.65;4.30;;;12.10;85.00;;;;;;5100585;28;20181;-73
2021/04/28 05:38:36;;;;;;;5.70;4.55;;;12.20;84.90;;;;;;5091668;28;20186;-73
2021/04/28 05:41:03;;;;;;;4.38;3.97;;;12.20;84.40;;;;;;5089463;28;20678;-71
2021/04/28 05:43:29;;;;;;;6.35;3.72;;;12.30;84.40;;;;;;5092289;28;20190;-71
2021/04/28 05:45:55;;;;;;;8.02;3.63;;;12.30;83.80;;;;;;5095119;28;20198;-72
2021/04/28 05:48:21;;;;;;;5.63;3.65;;;12.40;84.30;;;;;;5093827;28;20620;-71
2021/04/28 05:50:47;;;;;;;4.85;4.00;;;12.40;84.00;;;;;;5098675;28;20181;-72
2021/04/28 05:53:13;;;;;;;9.40;3.35;;;12.50;83.90;;;;;;5095115;28;20185;-72
2021/04/28 05:55:39;;;;;;;7.97;3.03;;;12.60;83.90;;;;;;5090189;28;20251;-73
2021/04/28 05:58:06;;;;;;;3.08;2.88;;;12.70;83.40;;;;;;5095109;28;20269;-73
2021/04/28 06:00:33;;;;;;;7.88;3.40;;;12.80;83.00;;;;;;5095020;28;20552;-71
2021/04/28 06:02:58;;;;;;;3.55;3.28;;;12.80;83.10;;;;;;5096056;28;20181;-71
2021/04/28 06:05:24;;;;;;;3.88;3.58;;;12.90;82.90;;;;;;5098143;28;20198;-72
2021/04/28 06:07:50;;;;;;;3.67;3.38;;;13.00;82.50;;;;;;5096244;28;20181;-72
2021/04/28 06:10:16;;;;;;;4.25;3.03;;;13.00;81.70;;;;;;5095679;28;20174;-72
2021/04/28 06:12:44;;;;;;;5.78;3.75;;;13.10;81.80;;;;;;5091693;28;20254;-72
2021/04/28 06:15:11;;;;;;;3.03;2.75;;;13.20;81.90;;;;;;5092154;28;20312;-72
2021/04/28 06:17:37;;;;;;;2.83;2.63;;;13.20;81.40;;;;;;5092404;28;20260;-72
2021/04/28 06:20:06;;;;;;;3.28;2.88;;;13.30;80.90;;;;;;5096377;28;20296;-72
2021/04/28 06:22:31;;;;;;;3.28;2.33;;;13.40;80.80;;;;;;5099531;28;20177;-72
2021/04/28 06:24:57;;;;;;;4.20;2.92;;;13.50;81.00;;;;;;5101203;28;20271;-73
2021/04/28 06:27:26;;;;;;;4.25;2.80;;;13.50;80.40;;;;;;5096498;28;20264;-73
2021/04/28 06:29:52;;;;;;;3.85;2.72;;;13.60;79.70;;;;;;5099696;28;20187;-73
2021/04/28 06:32:18;;;;;;;3.28;2.97;;;13.70;79.60;;;;;;5101437;28;20669;-71
2021/04/28 06:34:43;;;;;;;2.70;2.53;;;13.80;78.90;;;;;;5100689;28;20612;-72
2021/04/28 06:37:10;;;;;;;2.92;2.72;;;13.80;79.20;;;;;;5081777;28;20221;-72
2021/04/28 06:39:36;;;;;;;3.00;2.50;;;13.90;79.10;;;;;;5093747;28;20606;-72
2021/04/28 06:42:02;;;;;;;4.35;2.90;;;14.00;79.00;;;;;;5094850;28;20189;-72
2021/04/28 06:44:27;;;;;;;2.83;2.63;;;14.00;78.60;;;;;;5096987;28;20181;-72
2021/04/28 06:46:53;;;;;;;2.40;2.20;;;14.10;78.10;;;;;;5096080;28;20224;-72
2021/04/28 06:49:19;;;;;;;2.50;2.30;;;14.20;77.90;;;;;;5096151;28;20555;-72
2021/04/28 06:51:45;;;;;;;3.17;2.95;;;14.30;77.80;;;;;;5096380;28;20185;-72
2021/04/28 06:54:10;;;;;;;3.25;3.05;;;14.40;77.00;;;;;;5092765;28;20245;-73
2021/04/28 06:56:41;;;;;;;3.72;3.15;;;14.50;77.20;;;;;;5095476;28;20189;-72
2021/04/28 06:59:07;;;;;;;4.15;2.97;;;14.50;76.40;;;;;;5098284;28;20191;-72
2021/04/28 07:01:33;;;;;;;6.70;2.60;;;14.60;75.80;;;;;;5096303;28;20178;-72
2021/04/28 07:03:59;;;;;;;2.67;2.58;;;14.70;75.60;;;;;;5091903;28;20601;-72
2021/04/28 07:06:24;;;;;;;3.08;2.88;;;14.80;75.60;;;;;;5097637;28;20182;-72
2021/04/28 07:08:50;;;;;;;3.63;2.60;;;14.90;72.70;;;;;;5094294;28;20205;-72
2021/04/28 07:11:16;;;;;;;3.50;3.30;;;14.90;72.80;;;;;;5096001;28;20231;-71
2021/04/28 07:13:42;;;;;;;12.27;3.05;;;15.00;73.80;;;;;;5093861;28;20225;-71
2021/04/28 07:16:07;;;;;;;3.25;2.95;;;15.10;74.10;;;;;;5101935;28;20196;-71
2021/04/28 07:18:33;;;;;;;2.67;2.47;;;15.10;73.90;;;;;;5098101;28;20197;-71
2021/04/28 07:20:58;;;;;;;4.10;3.20;;;15.20;73.40;;;;;;5099545;28;20265;-71
2021/04/28 07:23:24;;;;;;;2.97;2.78;;;15.30;71.90;;;;;;5080730;28;20635;-71
2021/04/28 07:25:50;;;;;;;3.15;2.92;;;15.30;72.90;;;;;;5095465;28;20194;-71
2021/04/28 07:28:16;;;;;;;3.92;3.13;;;15.40;72.80;;;;;;5099235;28;20182;-71
2021/04/28 07:30:42;;;;;;;3.08;2.88;;;15.40;72.50;;;;;;5099850;28;20187;-72
2021/04/28 07:33:07;;;;;;;3.20;2.97;;;15.50;72.20;;;;;;5098915;28;20185;-72
2021/04/28 07:35:33;;;;;;;3.00;2.78;;;15.50;71.70;;;;;;5099904;28;20696;-71
2021/04/28 07:37:59;;;;;;;4.72;2.50;;;15.60;71.80;;;;;;5098729;28;20831;-72
2021/04/28 07:40:24;;;;;;;2.80;2.55;;;15.70;71.60;;;;;;5103562;28;20182;-72
2021/04/28 07:42:50;;;;;;;4.60;2.92;;;15.80;72.60;;;;;;5099009;28;20209;-72
2021/04/28 07:45:17;;;;;;;5.47;3.60;;;15.80;70.90;;;;;;5101262;28;20578;-72
2021/04/28 07:47:43;;;;;;;3.05;2.85;;;15.90;70.10;;;;;;5100721;28;20170;-72
2021/04/28 07:50:10;;;;;;;3.40;3.10;;;15.90;71.70;;;;;;5095122;28;20177;-72
2021/04/28 07:52:36;;;;;;;2.97;2.72;;;16.00;70.90;;;;;;5081342;28;20190;-71
2021/04/28 07:55:02;;;;;;;7.07;3.28;;;16.00;71.40;;;;;;5094438;28;20213;-72
2021/04/28 07:57:28;;;;;;;3.30;3.00;;;16.10;71.90;;;;;;5096369;28;20181;-71
2021/04/28 07:59:54;;;;;;;2.85;2.75;;;16.10;71.10;;;;;;5101775;28;20182;-72
2021/04/28 08:02:20;;;;;;;2.53;2.38;;;16.20;71.40;;;;;;5097594;28;20761;-73
2021/04/28 08:04:46;;;;;;;6.68;2.85;;;16.30;70.80;;;;;;5096061;28;20175;-71
2021/04/28 08:07:12;;;;;;;3.25;3.10;;;16.40;70.00;;;;;;5094595;28;20185;-73
2021/04/28 08:09:38;;;;;;;2.95;2.85;;;16.40;70.40;;;;;;5097274;28;20177;-72
2021/04/28 08:12:05;;;;;;;3.05;2.95;;;16.50;69.70;;;;;;5097701;28;20328;-74
2021/04/28 08:14:31;;;;;;;2.95;2.75;;;16.50;70.90;;;;;;5075691;28;20285;-73
2021/04/28 08:16:58;;;;;;;3.55;3.13;;;16.60;70.50;;;;;;5099858;28;20202;-73
2021/04/28 08:19:25;;;;;;;3.35;3.22;;;16.70;69.40;;;;;;5095565;28;20181;-74
2021/04/28 08:21:52;;;;;;;3.03;2.65;;;16.80;70.10;;;;;;5097664;28;20182;-74
2021/04/28 08:24:18;;;;;;;3.25;2.92;;;16.90;70.50;;;;;;5095474;28;20185;-73
2021/04/28 08:26:45;;;;;;;3.33;3.08;;;17.00;69.30;;;;;;5071162;28;20182;-73
2021/04/28 08:29:11;;;;;;;7.53;3.58;;;17.10;70.10;;;;;;5093496;28;20170;-73
2021/04/28 08:31:36;;;;;;;3.42;3.22;;;17.20;69.00;;;;;;5094683;28;20197;-73
2021/04/28 08:34:02;;;;;;;3.42;3.05;;;17.30;68.70;;;;;;5098918;28;20605;-75
2021/04/28 08:36:31;;;;;;;3.28;3.17;;;17.30;67.80;;;;;;5093271;28;20241;-74
2021/04/28 08:38:56;;;;;;;4.05;3.17;;;17.30;69.10;;;;;;5097233;28;20181;-74
2021/04/28 08:41:22;;;;;;;3.17;2.97;;;17.30;69.00;;;;;;5095702;28;20251;-75
2021/04/28 08:43:48;;;;;;;3.60;3.30;;;17.50;68.70;;;;;;5095117;28;20196;-74
2021/04/28 08:46:15;;;;;;;3.53;3.22;;;17.60;68.50;;;;;;5096903;28;20770;-74
2021/04/28 08:48:41;;;;;;;3.38;3.17;;;17.70;67.70;;;;;;5095506;28;20581;-72
2021/04/28 08:51:07;;;;;;;3.53;3.25;;;17.80;68.90;;;;;;5096530;28;20182;-73
2021/04/28 08:53:35;;;;;;;5.78;3.67;;;18.00;69.20;;;;;;5096371;28;20189;-73
2021/04/28 08:56:08;;;;;;;4.65;3.72;;;18.10;68.40;;;;;;5094330;28;20297;-73
2021/04/28 08:58:35;;;;;;;6.20;5.28;;;18.30;68.40;;;;;;5095299;28;20563;-73
2021/04/28 09:01:01;;;;;;;18.42;6.70;;;18.40;67.60;;;;;;5093955;28;20672;-74
2021/04/28 09:03:41;;;;;;;4.72;4.03;;;18.60;67.70;;;;;;5091291;28;20281;-74
2021/04/28 09:06:31;;;;;;;3.28;3.00;;;18.80;67.10;;;;;;5096562;28;20209;-74
2021/04/28 09:09:05;;;;;;;3.30;3.00;;;18.80;65.30;;;;;;5093344;28;20229;-74
2021/04/28 09:11:50;;;;;;;3.40;3.25;;;18.90;66.50;;;;;;5090656;28;20181;-74
2021/04/28 09:14:24;;;;;;;6.90;2.90;;;19.00;66.60;;;;;;5092653;28;20600;-74
2021/04/28 09:16:55;;;;;;;9.60;5.70;;;19.20;66.90;;;;;;5090474;28;20280;-74
2021/04/28 09:19:26;;;;;;;7.55;4.00;;;19.40;65.90;;;;;;5088152;28;20179;-74
2021/04/28 09:21:54;;;;;;;3.20;3.00;;;19.70;65.50;;;;;;5101060;28;20185;-74
2021/04/28 09:24:24;;;;;;;3.53;2.78;;;20.10;64.50;;;;;;5093451;28;20864;-74
2021/04/28 09:26:54;;;;;;;5.10;3.33;;;20.40;63.80;;;;;;5092906;28;20182;-74
2021/04/28 09:29:22;;;;;;;4.07;3.22;;;20.90;63.10;;;;;;5089627;28;20623;-73
2021/04/28 09:31:58;;;;;;;3.85;2.95;;;21.20;62.30;;;;;;5088893;28;20177;-73
2021/04/28 09:34:29;;;;;;;3.15;2.88;;;21.50;62.40;;;;;;5090203;28;20201;-73
2021/04/28 09:37:06;;;;;;;2.65;2.55;;;22.00;61.30;;;;;;5092845;28;20213;-73
2021/04/28 09:39:47;;;;;;;6.45;3.20;;;22.70;59.90;;;;;;5097269;28;20190;-73
2021/04/28 09:42:17;;;;;;;3.80;3.60;;;23.40;59.50;;;;;;5095355;28;20185;-74
2021/04/28 09:44:53;;;;;;;3.42;3.22;;;24.10;58.30;;;;;;5093141;28;20201;-74
2021/04/28 09:47:22;;;;;;;2.90;2.70;;;24.80;57.30;;;;;;5090016;28;20184;-74
2021/04/28 09:49:49;;;;;;;2.75;2.60;;;25.60;55.30;;;;;;5085218;28;20611;-74
2021/04/28 09:52:18;;;;;;;3.17;2.95;;;26.30;55.20;;;;;;5082173;28;20287;-75
2021/04/28 09:54:45;;;;;;;3.55;2.70;;;26.90;53.10;;;;;;5093259;28;20201;-73
2021/04/28 09:57:15;;;;;;;3.15;3.00;;;27.00;53.70;;;;;;5091873;28;20238;-73
2021/04/28 09:59:46;;;;;;;3.30;3.10;;;27.30;54.00;;;;;;5096846;28;20188;-73
2021/04/28 10:02:13;;;;;;;2.92;2.80;;;27.80;51.90;;;;;;5091885;28;20182;-73
2021/04/28 10:04:39;;;;;;;3.78;3.58;;;28.40;52.10;;;;;;5092046;28;20186;-73
2021/04/28 10:07:05;;;;;;;3.53;2.92;;;28.90;50.30;;;;;;5087546;28;20622;-74
2021/04/28 10:09:36;;;;;;;3.75;3.05;;;29.30;52.20;;;;;;5091708;28;20778;-74
2021/04/28 10:12:06;;;;;;;3.05;2.85;;;29.70;50.60;;;;;;5092577;28;20213;-74
2021/04/28 10:14:33;;;;;;;6.18;2.25;;;30.10;49.50;;;;;;5097641;28;20242;-74
2021/04/28 10:17:03;;;;;;;2.40;2.40;;;30.40;50.20;;;;;;5099997;28;20569;-75
2021/04/28 10:19:31;;;;;;;2.40;2.33;;;30.70;48.40;;;;;;5090643;28;20710;-75
2021/04/28 10:22:07;;;;;;;4.07;2.70;;;30.90;48.80;;;;;;5096568;28;20178;-76
2021/04/28 10:24:33;;;;;;;6.13;2.70;;;31.00;47.30;;;;;;5093683;28;20190;-77
2021/04/28 10:26:59;;;;;;;2.90;2.80;;;31.00;47.00;;;;;;5088364;28;20222;-76
2021/04/28 10:29:26;;;;;;;2.92;2.72;;;30.70;49.50;;;;;;5090637;28;20189;-74
2021/04/28 10:31:54;;;;;;;4.40;2.72;;;30.70;48.10;;;;;;5089223;28;20264;-74
2021/04/28 10:34:44;;;;;;;3.13;2.67;;;31.10;49.40;;;;;;5092582;28;20641;-74
2021/04/28 10:37:10;;;;;;;3.50;3.08;;;31.10;48.10;;;;;;5089673;28;20346;-74
2021/04/28 10:39:37;;;;;;;2.17;2.17;;;31.30;48.60;;;;;;5094989;28;20665;-74
2021/04/28 10:42:04;;;;;;;3.42;3.20;;;31.30;48.10;;;;;;5091787;28;20178;-74
2021/04/28 10:44:30;;;;;;;2.45;2.35;;;31.60;48.00;;;;;;5092748;28;20222;-75
2021/04/28 10:47:14;;;;;;;3.05;2.85;;;31.60;47.60;;;;;;5092060;28;20268;-75
2021/04/28 10:49:59;;;;;;;2.72;2.53;;;31.60;46.80;;;;;;5094677;28;20181;-74
2021/04/28 10:52:31;;;;;;;3.45;2.92;;;31.60;45.90;;;;;;5096610;28;20173;-74
2021/04/28 10:54:57;;;;;;;4.30;2.55;;;31.40;46.90;;;;;;5096272;28;20847;-74
2021/04/28 10:57:38;;;;;;;3.08;2.67;;;31.20;46.30;;;;;;5097962;28;20193;-74
2021/04/28 11:00:24;;;;;;;2.47;2.47;;;30.80;47.90;;;;;;5091427;28;20229;-73
2021/04/28 11:02:50;;;;;;;2.30;2.20;;;30.90;47.80;;;;;;5096517;28;20184;-74
2021/04/28 11:05:26;;;;;;;7.65;2.70;;;31.30;47.20;;;;;;5095048;28;20277;-74
2021/04/28 11:08:02;;;;;;;2.30;2.15;;;31.90;48.20;;;;;;5099158;28;20658;-74
2021/04/28 11:10:34;;;;;;;2.47;2.33;;;32.30;47.00;;;;;;5091299;28;20185;-75
2021/04/28 11:13:29;;;;;;;2.45;2.45;;;32.80;47.50;;;;;;5097741;28;20197;-74
2021/04/28 11:16:00;;;;;;;2.03;2.03;;;33.30;45.00;;;;;;5083786;28;20236;-74
2021/04/28 11:18:37;;;;;;;2.90;2.70;;;33.60;47.00;;;;;;5096897;28;20177;-74
2021/04/28 11:21:18;;;;;;;4.00;2.22;;;34.00;44.80;;;;;;5097674;28;20726;-74
2021/04/28 11:24:13;;;;;;;2.50;2.30;;;34.20;44.30;;;;;;5094046;28;20182;-75
2021/04/28 11:26:48;;;;;;;2.45;2.35;;;34.70;44.10;;;;;;5094628;28;20186;-74
2021/04/28 11:29:15;;;;;;;2.72;2.63;;;35.10;44.60;;;;;;5086728;28;20188;-74
2021/04/28 11:31:47;;;;;;;2.60;2.50;;;35.50;44.10;;;;;;5076658;28;20174;-75
2021/04/28 11:34:34;;;;;;;2.83;2.63;;;35.90;44.20;;;;;;5094758;28;20215;-74
2021/04/28 11:37:05;;;;;;;2.78;2.67;;;35.90;42.80;;;;;;5094806;28;20193;-75
2021/04/28 11:39:40;;;;;;;2.67;2.58;;;36.00;44.70;;;;;;5091888;28;20706;-75
2021/04/28 11:42:17;;;;;;;2.05;2.05;;;35.70;42.20;;;;;;5097504;28;20185;-75
2021/04/28 11:44:54;;;;;;;4.43;2.25;;;35.40;43.60;;;;;;5094286;28;20209;-73
2021/04/28 11:47:22;;;;;;;3.92;2.58;;;35.50;44.30;;;;;;5075324;28;20181;-72
2021/04/28 11:49:59;;;;;;;3.20;2.83;;;35.70;45.10;;;;;;5096463;28;20806;-73
2021/04/28 11:52:34;;;;;;;3.08;2.72;;;35.20;42.00;;;;;;5097880;28;20182;-74
2021/04/28 11:55:00;;;;;;;2.58;2.33;;;34.30;44.90;;;;;;5077913;28;20227;-74
2021/04/28 11:57:31;;;;;;;2.53;2.42;;;34.20;44.70;;;;;;5096082;28;20608;-74
2021/04/28 12:00:08;;;;;;;2.30;2.20;;;34.40;46.00;;;;;;5100944;28;20193;-74
2021/04/28 12:02:34;;;;;;;2.60;2.47;;;34.60;43.80;;;;;;5092908;28;20187;-74
2021/04/28 12:04:59;;;;;;;2.65;2.50;;;34.30;45.40;;;;;;5091569;28;20194;-73
2021/04/28 12:07:25;;;;;;;2.03;1.80;;;34.20;45.20;;;;;;5095714;28;20243;-73
2021/04/28 12:09:52;;;;;;;2.17;2.17;;;34.30;45.90;;;;;;5099986;28;20173;-73
2021/04/28 12:12:33;;;;;;;2.67;2.47;;;34.70;44.40;;;;;;5099638;28;20255;-72
2021/04/28 12:15:05;;;;;;;2.80;2.47;;;35.00;44.70;;;;;;5097056;28;20726;-72
2021/04/28 12:17:44;;;;;;;3.20;2.50;;;35.30;43.10;;;;;;5080245;28;20670;-72
2021/04/28 12:20:14;;;;;;;2.30;2.20;;;35.50;42.70;;;;;;5092632;28;20189;-72
2021/04/28 12:22:40;;;;;;;4.28;2.50;;;35.40;44.20;;;;;;5098805;28;20185;-72
2021/04/28 12:25:07;;;;;;;2.03;1.92;;;35.60;42.30;;;;;;5097960;28;20196;-72
2021/04/28 12:27:38;;;;;;;2.63;2.42;;;35.90;43.20;;;;;;5095312;28;20260;-74
2021/04/28 12:30:14;;;;;;;2.75;2.50;;;35.80;42.40;;;;;;5099773;28;20724;-72
2021/04/28 12:32:46;;;;;;;2.22;2.03;;;35.50;42.80;;;;;;5098239;28;20235;-72
2021/04/28 12:35:16;;;;;;;2.85;2.63;;;35.60;43.20;;;;;;5097208;28;20208;-75
2021/04/28 12:38:12;;;;;;;2.45;2.25;;;35.70;44.10;;;;;;5092857;28;20698;-73
2021/04/28 12:40:44;;;;;;;2.85;2.60;;;35.60;41.60;;;;;;5014774;28;20261;-73
2021/04/28 12:43:13;;;;;;;2.58;2.47;;;35.20;43.30;;;;;;5018063;28;20196;-72
2021/04/28 12:45:39;;;;;;;3.55;2.28;;;35.30;43.10;;;;;;5015934;28;20223;-73
2021/04/28 12:48:13;;;;;;;3.90;2.42;;;35.40;43.60;;;;;;5018339;28;20208;-73
2021/04/28 12:50:41;;;;;;;2.22;1.95;;;35.20;42.60;;;;;;5016878;28;20218;-73
2021/04/28 12:53:13;;;;;;;2.85;1.90;;;34.70;44.30;;;;;;5019252;28;20658;-73
2021/04/28 12:55:46;;;;;;;2.28;2.20;;;34.80;44.40;;;;;;5013844;28;20231;-73